Birch Creek GC
600 E Center St, Smithfield
Last Weather Update:09/30/2011 10:00:00 PM
Date
ETo
ETc
Rain
Irrigation
Req
Temp
Max
Temp
Min
Temp
Avg
Avg RH
Avg Wind
Avg Solar
inches
inches
incehs
inches
F
F
F
%
%
watts/m2
08/01/2011 0.11" 0.10" 1.85" -1.38" 77.7° 59.2° 66.0° 81.0% 3.1 MPH 150.1w/m2
08/02/2011 0.21" 0.19" 0.00" 0.19" 85.9° 54.8° 69.7° 66.3% 3.1 MPH 298.4w/m2
08/03/2011 0.23" 0.20" 0.00" 0.20" 83.9° 59.6° 71.0° 70.8% 3.9 MPH 307.4w/m2
08/04/2011 0.24" 0.21" 0.00" 0.21" 87.7° 57.2° 71.3° 60.4% 3.4 MPH 326.3w/m2
08/05/2011 0.24" 0.21" 0.00" 0.21" 86.6° 56.0° 68.8° 55.6% 4.3 MPH 326.2w/m2
08/06/2011 0.25" 0.22" 0.00" 0.22" 87.5° 53.8° 69.8° 43.1% 3.7 MPH 332.5w/m2
08/07/2011 0.23" 0.20" 0.00" 0.20" 86.4° 54.3° 69.4° 43.3% 4.0 MPH 292.5w/m2
08/08/2011 0.26" 0.22" 0.00" 0.22" 87.5° 54.3° 70.6° 44.4% 3.7 MPH 327.3w/m2
08/09/2011 0.25" 0.21" 0.00" 0.21" 84.9° 55.3° 69.6° 56.4% 3.8 MPH 325.0w/m2
08/10/2011 0.25" 0.21" 0.00" 0.21" 85.9° 53.4° 69.7° 46.0% 3.6 MPH 326.6w/m2
08/11/2011 0.25" 0.20" 0.00" 0.20" 85.4° 53.9° 69.8° 50.9% 3.6 MPH 325.5w/m2
08/12/2011 0.24" 0.19" 0.00" 0.19" 87.2° 51.2° 69.0° 48.7% 3.2 MPH 326.1w/m2
08/13/2011 0.24" 0.20" 0.00" 0.20" 92.0° 53.2° 73.1° 27.6% 3.6 MPH 302.5w/m2
08/14/2011 0.27" 0.22" 0.00" 0.22" 89.6° 64.2° 77.8° 61.5% 5.1 MPH 316.3w/m2
08/15/2011 0.24" 0.19" 0.01" 0.18" 84.5° 58.7° 71.2° 65.0% 5.2 MPH 296.9w/m2
08/16/2011 0.23" 0.18" 0.00" 0.18" 86.1° 50.7° 67.5° 40.5% 3.3 MPH 317.8w/m2
08/17/2011 0.25" 0.20" 0.00" 0.20" 89.0° 52.9° 70.6° 44.2% 3.9 MPH 315.6w/m2
08/18/2011 0.25" 0.19" 0.00" 0.19" 90.7° 53.2° 71.7° 35.3% 3.6 MPH 309.4w/m2
08/19/2011 0.21" 0.16" 0.00" 0.16" 90.1° 53.5° 70.8° 55.6% 3.1 MPH 276.9w/m2
08/20/2011 0.24" 0.19" 0.00" 0.19" 91.8° 60.4° 75.7° 44.6% 4.3 MPH 293.2w/m2
08/21/2011 0.24" 0.19" 0.00" 0.19" 91.1° 60.5° 74.4° 45.3% 3.9 MPH 295.7w/m2
08/22/2011 0.27" 0.20" 0.00" 0.20" 91.8° 58.6° 75.7° 26.9% 4.2 MPH 310.1w/m2
08/23/2011 0.24" 0.18" 0.00" 0.18" 94.5° 56.7° 74.8° 47.9% 3.1 MPH 302.5w/m2
08/24/2011 0.25" 0.18" 0.00" 0.18" 95.3° 57.4° 76.0° 25.8% 3.8 MPH 299.0w/m2
08/25/2011 0.25" 0.18" 0.00" 0.18" 95.8° 64.7° 80.8° 29.7% 4.8 MPH 263.8w/m2
08/26/2011 0.26" 0.19" 0.00" 0.19" 96.4° 64.2° 81.3° 53.8% 4.2 MPH 289.8w/m2
08/27/2011 0.22" 0.16" 0.00" 0.16" 95.2° 65.8° 78.8° 52.0% 3.2 MPH 271.8w/m2
08/28/2011 0.17" 0.12" 0.00" 0.12" 89.5° 64.4° 74.7° 64.8% 3.4 MPH 204.8w/m2
08/29/2011 0.22" 0.16" 0.01" 0.15" 87.4° 57.8° 71.8° 47.8% 4.0 MPH 284.5w/m2
08/30/2011 0.19" 0.14" 0.00" 0.14" 89.5° 58.2° 73.7° 26.5% 3.6 MPH 230.1w/m2
08/31/2011 0.28" 0.20" 0.00" 0.20" 88.9° 58.8° 77.1° 46.9% 6.9 MPH 255.4w/m2
Totals: 7.27" 5.78" 1.87" 4.29" 96.4° 50.7° 72.7° 48.7% 3.9 MPH 293.5w/m2